createdAt,value
2022-08-19T00:01:30.793Z,16.20
2022-08-19T00:03:59.626Z,16.05
2022-08-19T00:06:28.139Z,15.20
2022-08-19T00:08:55.075Z,16.00
2022-08-19T00:11:25.971Z,17.02
2022-08-19T00:13:53.374Z,16.58
2022-08-19T00:16:26.536Z,16.10
2022-08-19T00:18:57.160Z,16.45
2022-08-19T00:21:25.218Z,17.02
2022-08-19T00:23:52.856Z,18.40
2022-08-19T00:26:20.130Z,17.02
2022-08-19T00:28:48.081Z,16.45
2022-08-19T00:31:14.900Z,14.60
2022-08-19T00:33:41.707Z,17.33
2022-08-19T00:36:09.671Z,18.30
2022-08-19T00:38:38.383Z,17.52
2022-08-19T00:41:08.584Z,18.13
2022-08-19T00:43:35.487Z,17.42
2022-08-19T00:46:05.772Z,16.15
2022-08-19T00:48:34.518Z,17.98
2022-08-19T00:51:02.150Z,17.70
2022-08-19T00:53:32.907Z,17.15
2022-08-19T00:56:01.336Z,18.02
2022-08-19T00:58:31.463Z,17.80
2022-08-19T01:00:58.397Z,16.88
2022-08-19T01:03:25.221Z,15.88
2022-08-19T01:05:53.469Z,18.00
2022-08-19T01:08:20.924Z,15.60
2022-08-19T01:10:51.377Z,17.05
2022-08-19T01:13:23.252Z,15.88
2022-08-19T01:15:54.941Z,17.80
2022-08-19T01:18:22.027Z,16.85
2022-08-19T01:20:49.431Z,17.48
2022-08-19T01:23:16.427Z,17.63
2022-08-19T01:25:47.277Z,15.77
2022-08-19T01:28:33.894Z,18.27
2022-08-19T01:31:01.404Z,16.35
2022-08-19T01:33:35.173Z,18.23
2022-08-19T01:36:11.652Z,18.23
2022-08-19T01:38:44.268Z,17.75
2022-08-19T01:41:13.356Z,18.08
2022-08-19T01:44:17.061Z,18.65
2022-08-19T01:46:27.257Z,19.75
2022-08-19T01:48:53.960Z,18.70
2022-08-19T01:51:20.854Z,20.45
2022-08-19T01:53:52.161Z,20.17
2022-08-19T01:56:20.004Z,19.35
2022-08-19T01:58:55.495Z,18.35
2022-08-19T02:01:22.500Z,17.83
2022-08-19T02:03:49.333Z,17.33
2022-08-19T02:06:17.994Z,19.75
2022-08-19T02:08:47.116Z,20.02
2022-08-19T02:11:28.055Z,20.02
2022-08-19T02:13:55.758Z,20.75
2022-08-19T02:16:23.054Z,20.25
2022-08-19T02:18:50.007Z,19.70
2022-08-19T02:21:18.617Z,21.98
2022-08-19T02:23:46.390Z,22.75
2022-08-19T02:26:13.955Z,22.02
2022-08-19T02:28:42.168Z,22.13
2022-08-19T02:31:18.709Z,22.77
2022-08-19T02:33:46.302Z,20.60
2022-08-19T02:36:14.178Z,22.10
2022-08-19T02:38:43.423Z,21.88
2022-08-19T02:41:26.629Z,24.27
2022-08-19T02:44:28.584Z,22.88
2022-08-19T02:46:42.100Z,22.48
2022-08-19T02:49:09.098Z,22.67
2022-08-19T02:51:42.852Z,22.88
2022-08-19T02:54:11.025Z,22.87
2022-08-19T02:56:39.313Z,23.13
2022-08-19T02:59:09.204Z,23.48
2022-08-19T03:01:38.692Z,24.23
2022-08-19T03:04:06.821Z,24.80
2022-08-19T03:06:36.966Z,24.17
2022-08-19T03:09:04.125Z,23.92
2022-08-19T03:11:32.897Z,21.95
2022-08-19T03:14:01.213Z,23.58
2022-08-19T03:16:29.882Z,22.05
2022-08-19T03:19:01.084Z,24.05
2022-08-19T03:21:30.345Z,23.77
2022-08-19T03:23:59.004Z,24.25
2022-08-19T03:26:25.885Z,22.73
2022-08-19T03:28:58.584Z,23.75
2022-08-19T03:31:44.283Z,22.98
2022-08-19T03:34:16.546Z,22.50
2022-08-19T03:36:43.444Z,24.17
2022-08-19T03:39:11.321Z,23.60
2022-08-19T03:41:45.060Z,22.65
2022-08-19T03:44:16.783Z,24.42
2022-08-19T03:46:46.780Z,25.15
2022-08-19T03:49:14.361Z,23.58
2022-08-19T03:51:42.711Z,25.23
2022-08-19T03:54:13.785Z,22.45
2022-08-19T03:56:41.728Z,24.65
2022-08-19T03:59:10.235Z,25.80
2022-08-19T04:01:37.074Z,26.55
2022-08-19T04:04:04.807Z,24.63
2022-08-19T04:06:38.859Z,22.52
2022-08-19T04:09:09.599Z,26.98
2022-08-19T04:11:55.016Z,25.70
2022-08-19T04:14:24.953Z,28.52
2022-08-19T04:16:52.889Z,27.00
2022-08-19T04:19:21.151Z,25.85
2022-08-19T04:21:51.283Z,25.83
2022-08-19T04:24:19.283Z,26.83
2022-08-19T04:26:47.060Z,27.45
2022-08-19T04:29:17.357Z,24.73
2022-08-19T04:31:46.052Z,25.83
2022-08-19T04:34:14.699Z,27.73
2022-08-19T04:36:43.163Z,28.08
2022-08-19T04:39:13.856Z,26.30
2022-08-19T04:41:59.311Z,24.58
2022-08-19T04:44:26.663Z,25.35
2022-08-19T04:46:53.796Z,26.85
2022-08-19T04:49:23.270Z,27.55
2022-08-19T04:51:52.284Z,26.02
2022-08-19T04:54:37.353Z,27.80
2022-08-19T04:57:10.628Z,28.70
2022-08-19T04:59:39.163Z,27.00
2022-08-19T05:02:06.449Z,25.42
2022-08-19T05:04:33.857Z,26.75
2022-08-19T05:07:02.291Z,26.90
2022-08-19T05:09:52.533Z,26.90
2022-08-19T05:12:17.333Z,26.45
2022-08-19T05:14:45.921Z,27.52
2022-08-19T05:17:27.084Z,28.23
2022-08-19T05:20:14.656Z,25.92
2022-08-19T05:22:42.368Z,26.00
2022-08-19T05:25:14.876Z,27.85
2022-08-19T05:27:42.513Z,27.60
2022-08-19T05:30:10.165Z,27.85
2022-08-19T05:32:37.088Z,26.60
2022-08-19T05:35:05.274Z,28.65
2022-08-19T05:37:32.234Z,26.95
2022-08-19T05:39:59.074Z,27.20
2022-08-19T05:42:27.495Z,27.40
2022-08-19T05:44:54.574Z,28.10
2022-08-19T05:47:21.674Z,23.67
2022-08-19T05:49:50.691Z,25.27
2022-08-19T05:52:18.842Z,26.27
2022-08-19T05:54:50.867Z,25.08
2022-08-19T05:57:19.373Z,26.13
2022-08-19T05:59:53.299Z,23.67
2022-08-19T06:02:29.287Z,24.02
2022-08-19T06:04:56.082Z,26.25
2022-08-19T06:07:23.027Z,25.48
2022-08-19T06:10:00.125Z,24.70
2022-08-19T06:12:35.449Z,25.27
2022-08-19T06:17:32.272Z,24.88
2022-08-19T06:20:00.027Z,22.67
2022-08-19T06:22:27.603Z,25.08
2022-08-19T06:24:55.540Z,31.27
2022-08-19T06:27:22.874Z,46.60
2022-08-19T06:29:49.814Z,34.58
2022-08-19T06:32:19.272Z,55.60
2022-08-19T06:34:46.197Z,34.05
2022-08-19T06:37:13.558Z,27.33
2022-08-19T06:39:42.618Z,25.27
2022-08-19T06:42:12.857Z,23.63
2022-08-19T06:44:42.476Z,24.35
2022-08-19T06:47:14.968Z,23.13
2022-08-19T06:49:50.825Z,23.00
2022-08-19T06:52:18.742Z,22.90
2022-08-19T06:54:56.115Z,22.73
2022-08-19T06:57:24.954Z,23.00
2022-08-19T06:59:52.439Z,23.67
2022-08-19T07:02:19.925Z,23.10
2022-08-19T07:04:46.748Z,23.67
2022-08-19T07:07:20.203Z,23.63
2022-08-19T07:09:57.940Z,24.10
2022-08-19T07:12:36.197Z,22.52
2022-08-19T07:15:06.339Z,20.40
2022-08-19T07:17:34.466Z,21.35
2022-08-19T07:20:05.366Z,21.50
2022-08-19T07:22:35.034Z,21.17
2022-08-19T07:25:03.907Z,20.58
2022-08-19T07:27:31.273Z,21.35
2022-08-19T07:30:00.877Z,21.70
2022-08-19T07:32:27.980Z,22.50
2022-08-19T07:34:56.376Z,22.02
2022-08-19T07:37:32.029Z,20.15
2022-08-19T07:39:59.955Z,50.88
2022-08-19T07:42:27.584Z,173.82
2022-08-19T07:44:54.377Z,59.90
2022-08-19T07:47:49.207Z,20.10
2022-08-19T07:50:10.103Z,27.38
2022-08-19T07:52:39.531Z,24.75
2022-08-19T07:55:40.082Z,22.52
2022-08-19T07:57:58.814Z,22.98
2022-08-19T08:00:26.127Z,26.88
2022-08-19T08:02:55.356Z,24.48
2022-08-19T08:05:43.669Z,22.77
2022-08-19T08:08:27.515Z,20.50
2022-08-19T08:10:56.905Z,22.20
2022-08-19T08:13:24.934Z,28.33
2022-08-19T08:15:52.936Z,26.77
2022-08-19T08:18:21.893Z,24.73
2022-08-19T08:20:55.064Z,23.95
2022-08-19T08:23:26.317Z,20.40
2022-08-19T08:25:55.975Z,22.92
2022-08-19T08:28:24.012Z,22.30
2022-08-19T08:30:51.529Z,18.63
2022-08-19T08:33:34.261Z,17.30
2022-08-19T08:36:04.797Z,17.05
2022-08-19T08:38:39.012Z,18.67
2022-08-19T08:41:31.465Z,17.98
2022-08-19T08:43:59.718Z,17.15
2022-08-19T08:46:59.980Z,17.23
2022-08-19T08:49:52.448Z,17.38
2022-08-19T08:52:32.235Z,17.23
2022-08-19T08:55:02.355Z,16.20
2022-08-19T08:57:40.832Z,14.90
2022-08-19T09:00:31.199Z,15.40
2022-08-19T09:02:59.349Z,15.25
2022-08-19T09:05:41.564Z,16.00
2022-08-19T09:08:44.338Z,16.33
2022-08-19T09:11:17.191Z,15.30
2022-08-19T09:14:49.867Z,14.75
2022-08-19T09:17:19.591Z,16.60
2022-08-19T09:19:52.653Z,16.13
2022-08-19T09:22:25.701Z,16.55
2022-08-19T09:24:54.105Z,15.23
2022-08-19T09:27:22.310Z,17.13
2022-08-19T09:30:15.878Z,16.42
2022-08-19T09:32:44.053Z,14.00
2022-08-19T09:35:18.093Z,14.30
2022-08-19T09:37:45.300Z,15.73
2022-08-19T09:40:13.360Z,15.27
2022-08-19T09:42:50.274Z,14.38
2022-08-19T09:45:22.807Z,13.85
2022-08-19T09:47:52.213Z,14.05
2022-08-19T09:50:21.800Z,13.45
2022-08-19T09:52:57.221Z,12.40
2022-08-19T09:55:31.840Z,12.18
2022-08-19T09:58:01.587Z,11.13
2022-08-19T10:00:28.693Z,10.82
2022-08-19T10:02:55.487Z,9.85
2022-08-19T10:05:42.701Z,10.23
2022-08-19T10:08:14.612Z,7.93
2022-08-19T10:10:46.773Z,9.63
2022-08-19T10:13:16.014Z,8.95
2022-08-19T10:15:47.090Z,8.60
2022-08-19T10:18:17.748Z,7.72
2022-08-19T10:20:46.640Z,7.88
2022-08-19T10:23:20.822Z,7.38
2022-08-19T10:25:48.754Z,7.72
2022-08-19T10:28:15.615Z,7.13
2022-08-19T10:30:57.963Z,6.97
2022-08-19T10:33:38.592Z,8.27
2022-08-19T10:36:19.921Z,9.27
2022-08-19T10:38:54.821Z,9.25
2022-08-19T10:41:30.033Z,9.48
2022-08-19T10:44:03.934Z,8.98
2022-08-19T10:46:35.034Z,9.05
2022-08-19T10:49:03.723Z,9.38
2022-08-19T10:51:49.657Z,10.57
2022-08-19T10:54:16.751Z,8.88
2022-08-19T10:56:53.142Z,7.80
2022-08-19T10:59:33.805Z,7.80
2022-08-19T11:02:10.574Z,7.95
2022-08-19T11:04:38.445Z,8.20
2022-08-19T11:07:06.886Z,7.90
2022-08-19T11:09:41.749Z,8.05
2022-08-19T11:12:10.655Z,7.55
2022-08-19T11:14:38.649Z,8.68
2022-08-19T11:17:06.654Z,8.52
2022-08-19T11:19:34.164Z,7.60
2022-08-19T11:22:05.375Z,8.70
2022-08-19T11:24:32.817Z,8.35
2022-08-19T11:27:10.065Z,7.70
2022-08-19T11:29:39.539Z,6.22
2022-08-19T11:32:11.118Z,6.85
2022-08-19T11:34:38.155Z,7.05
2022-08-19T11:37:05.288Z,7.35
2022-08-19T11:39:33.539Z,6.20
2022-08-19T11:42:02.021Z,5.75
2022-08-19T11:44:31.192Z,6.25
2022-08-19T11:46:58.620Z,6.57
2022-08-19T11:49:37.130Z,6.55
2022-08-19T11:52:04.349Z,6.22
2022-08-19T11:54:31.868Z,8.48
2022-08-19T11:56:58.654Z,6.80
2022-08-19T11:59:27.740Z,8.02
2022-08-19T12:01:54.492Z,6.93
2022-08-19T12:04:21.547Z,7.20
2022-08-19T12:06:48.425Z,7.82
2022-08-19T12:09:16.451Z,7.78
2022-08-19T12:11:43.219Z,6.90
2022-08-19T12:14:14.170Z,7.28
2022-08-19T12:16:51.473Z,6.20
2022-08-19T12:19:26.299Z,7.70
2022-08-19T12:21:56.420Z,7.82
2022-08-19T12:24:25.162Z,7.50
2022-08-19T12:26:52.472Z,7.82
2022-08-19T12:29:23.728Z,7.63
2022-08-19T12:31:51.333Z,6.35
2022-08-19T12:34:18.379Z,6.55
2022-08-19T12:36:45.249Z,7.30
2022-08-19T12:39:12.101Z,8.18
2022-08-19T12:41:45.095Z,8.20
2022-08-19T12:44:21.400Z,7.95
2022-08-19T12:46:57.558Z,8.20
2022-08-19T12:49:52.270Z,8.43
2022-08-19T12:52:16.677Z,8.15
2022-08-19T12:54:55.330Z,7.80
2022-08-19T12:57:31.573Z,7.57
2022-08-19T13:00:01.924Z,7.95
2022-08-19T13:02:33.160Z,8.32
2022-08-19T13:05:09.446Z,7.20
2022-08-19T13:07:40.167Z,7.07
2022-08-19T13:10:09.585Z,8.13
2022-08-19T13:12:36.818Z,7.68
2022-08-19T13:15:11.087Z,6.97
2022-08-19T13:17:39.527Z,7.53
2022-08-19T13:20:09.153Z,6.90
2022-08-19T13:22:37.121Z,7.35
2022-08-19T13:25:06.279Z,6.88
2022-08-19T13:27:33.649Z,6.78
2022-08-19T13:30:20.277Z,7.20
2022-08-19T13:33:07.902Z,7.50
2022-08-19T13:35:35.183Z,8.77
2022-08-19T13:38:11.797Z,8.50
2022-08-19T13:40:41.170Z,9.00
2022-08-19T13:43:17.746Z,8.18
2022-08-19T13:45:51.255Z,8.60
2022-08-19T13:48:18.393Z,8.18
2022-08-19T13:50:47.808Z,8.90
2022-08-19T13:53:15.814Z,8.75
2022-08-19T13:55:44.393Z,7.70
2022-08-19T13:58:12.378Z,8.43
2022-08-19T14:01:00.395Z,8.52
2022-08-19T14:03:28.915Z,7.80
2022-08-19T14:05:56.306Z,7.88
2022-08-19T14:08:23.680Z,7.93
2022-08-19T14:10:51.085Z,7.22
2022-08-19T14:13:22.134Z,7.25
2022-08-19T14:15:53.267Z,6.97
2022-08-19T14:18:20.205Z,6.75
2022-08-19T14:20:47.079Z,8.63
2022-08-19T14:23:14.587Z,7.68
2022-08-19T14:25:43.573Z,7.82
2022-08-19T14:28:10.958Z,10.00
2022-08-19T14:30:38.866Z,7.72
2022-08-19T14:33:08.147Z,8.02
2022-08-19T14:35:35.649Z,6.55
2022-08-19T14:38:06.488Z,6.90
2022-08-19T14:40:33.457Z,7.25
2022-08-19T14:43:04.684Z,6.95
2022-08-19T14:45:34.025Z,6.82
2022-08-19T14:48:01.283Z,6.78
2022-08-19T14:50:29.352Z,6.50
2022-08-19T14:53:09.339Z,6.53
2022-08-19T14:55:42.829Z,5.82
2022-08-19T14:58:09.919Z,5.68
2022-08-19T15:00:58.296Z,5.90
2022-08-19T15:03:25.213Z,5.68
2022-08-19T15:05:52.000Z,5.40
2022-08-19T15:08:18.865Z,4.78
2022-08-19T15:10:47.417Z,5.03
2022-08-19T15:13:14.155Z,5.15
2022-08-19T15:15:40.866Z,4.82
2022-08-19T15:18:07.614Z,5.40
2022-08-19T15:20:34.397Z,4.72
2022-08-19T15:23:01.632Z,4.03
2022-08-19T15:25:29.388Z,4.20
2022-08-19T15:27:56.358Z,4.43
2022-08-19T15:30:25.941Z,4.30
2022-08-19T15:32:55.704Z,4.00
2022-08-19T15:35:24.138Z,4.22
2022-08-19T15:37:52.523Z,4.40
2022-08-19T15:40:20.823Z,4.50
2022-08-19T15:42:49.732Z,4.40
2022-08-19T15:45:18.591Z,4.65
2022-08-19T15:47:45.498Z,4.20
2022-08-19T15:50:23.699Z,4.32
2022-08-19T15:52:56.785Z,4.55
2022-08-19T15:55:32.615Z,4.38
2022-08-19T15:58:29.729Z,4.18
2022-08-19T16:01:21.173Z,4.07
2022-08-19T16:04:11.156Z,4.28
2022-08-19T16:06:54.264Z,4.05
2022-08-19T16:09:27.236Z,4.15
2022-08-19T16:11:57.093Z,3.83
2022-08-19T16:14:28.724Z,4.37
2022-08-19T16:16:56.752Z,4.20
2022-08-19T16:19:24.578Z,4.20
2022-08-19T16:21:53.935Z,3.80
2022-08-19T16:24:23.733Z,4.43
2022-08-19T16:26:50.533Z,4.28
2022-08-19T16:29:21.992Z,4.05
2022-08-19T16:32:09.888Z,4.43
2022-08-19T16:34:38.093Z,3.75
2022-08-19T16:37:05.065Z,3.60
2022-08-19T16:39:32.245Z,3.53
2022-08-19T16:41:59.325Z,3.42
2022-08-19T16:44:29.857Z,4.10
2022-08-19T16:46:59.497Z,3.67
2022-08-19T16:49:54.191Z,3.78
2022-08-19T16:52:16.102Z,3.50
2022-08-19T16:54:43.561Z,3.63
2022-08-19T16:57:12.075Z,3.60
2022-08-19T16:59:48.314Z,3.63
2022-08-19T17:02:17.440Z,3.42
2022-08-19T17:04:44.216Z,3.30
2022-08-19T17:07:22.751Z,3.85
2022-08-19T17:09:50.496Z,3.78
2022-08-19T17:12:17.527Z,3.75
2022-08-19T17:14:46.019Z,3.42
2022-08-19T17:17:12.978Z,3.50
2022-08-19T17:19:42.148Z,3.20
2022-08-19T17:22:10.196Z,3.88
2022-08-19T17:24:42.569Z,3.80
2022-08-19T17:27:09.382Z,4.10
2022-08-19T17:29:36.118Z,4.35
2022-08-19T17:32:03.123Z,4.40
2022-08-19T17:34:30.379Z,4.30
2022-08-19T17:36:57.176Z,4.72
2022-08-19T17:39:25.297Z,4.15
2022-08-19T17:41:53.346Z,4.70
2022-08-19T17:44:20.049Z,5.28
2022-08-19T17:46:46.898Z,6.47
2022-08-19T17:49:14.381Z,6.95
2022-08-19T17:51:45.110Z,6.50
2022-08-19T17:54:18.778Z,6.75
2022-08-19T17:56:46.330Z,6.82
2022-08-19T17:59:14.524Z,6.97
2022-08-19T18:01:53.530Z,6.65
2022-08-19T18:04:23.041Z,6.30
2022-08-19T18:06:53.283Z,6.78
2022-08-19T18:09:41.890Z,7.38
2022-08-19T18:12:13.543Z,5.75
2022-08-19T18:14:41.273Z,7.03
2022-08-19T18:17:17.181Z,6.38
2022-08-19T18:19:44.884Z,5.78
2022-08-19T18:22:22.391Z,5.90
2022-08-19T18:24:49.192Z,6.03
2022-08-19T18:27:16.092Z,5.78
2022-08-19T18:29:43.332Z,5.43
2022-08-19T18:32:13.357Z,6.15
2022-08-19T18:34:41.850Z,6.25
2022-08-19T18:37:08.728Z,7.40
2022-08-19T18:39:53.950Z,6.50
2022-08-19T18:42:39.426Z,7.00
2022-08-19T18:45:25.206Z,6.68
2022-08-19T18:48:26.814Z,6.40
2022-08-19T18:50:56.613Z,6.18
2022-08-19T18:53:23.657Z,6.70
2022-08-19T18:55:53.785Z,5.82
2022-08-19T18:58:26.470Z,5.45
2022-08-19T19:00:55.815Z,5.55
2022-08-19T19:03:24.329Z,5.53
2022-08-19T19:05:52.688Z,4.75
2022-08-19T19:08:19.658Z,5.47
2022-08-19T19:10:47.653Z,4.85
2022-08-19T19:13:17.799Z,4.50
2022-08-19T19:15:44.656Z,4.38
2022-08-19T19:18:13.422Z,4.25
2022-08-19T19:20:40.896Z,4.10
2022-08-19T19:23:08.347Z,4.63
2022-08-19T19:25:50.609Z,3.83
2022-08-19T19:28:25.146Z,3.38
2022-08-19T19:30:53.835Z,3.50
2022-08-19T19:33:20.635Z,3.50
2022-08-19T19:35:47.503Z,3.60
2022-08-19T19:38:14.584Z,3.60
2022-08-19T19:40:41.302Z,3.40
2022-08-19T19:43:08.314Z,2.83
2022-08-19T19:45:35.357Z,3.17
2022-08-19T19:48:02.156Z,3.17
2022-08-19T19:50:30.206Z,2.75
2022-08-19T19:52:57.851Z,2.70
2022-08-19T19:55:26.389Z,2.70
2022-08-19T19:57:54.101Z,2.28
2022-08-19T20:00:21.638Z,2.65
2022-08-19T20:02:50.645Z,2.35
2022-08-19T20:05:21.061Z,2.08
2022-08-19T20:08:06.456Z,2.08
2022-08-19T20:10:33.500Z,2.03
2022-08-19T20:13:04.911Z,1.95
2022-08-19T20:15:32.203Z,2.00
2022-08-19T20:18:00.856Z,1.60
2022-08-19T20:20:27.969Z,1.80
2022-08-19T20:22:55.134Z,1.60
2022-08-19T20:25:22.100Z,1.77
2022-08-19T20:27:49.478Z,1.60
2022-08-19T20:30:20.146Z,1.63
2022-08-19T20:32:47.993Z,1.70
2022-08-19T20:35:16.386Z,2.40
2022-08-19T20:37:43.283Z,1.40
2022-08-19T20:40:11.291Z,1.42
2022-08-19T20:42:40.565Z,1.25
2022-08-19T20:45:21.543Z,1.63
2022-08-19T20:47:59.313Z,1.27
2022-08-19T20:50:26.187Z,1.35
2022-08-19T20:52:56.794Z,1.00
2022-08-19T20:55:23.711Z,1.10
2022-08-19T20:57:51.540Z,1.20
2022-08-19T21:00:18.916Z,1.20
2022-08-19T21:02:46.867Z,0.90
2022-08-19T21:05:13.828Z,1.25
2022-08-19T21:07:40.649Z,1.30
2022-08-19T21:10:07.890Z,1.10
2022-08-19T21:12:34.791Z,1.15
2022-08-19T21:15:01.568Z,1.10
2022-08-19T21:17:28.373Z,1.00
2022-08-19T21:19:55.356Z,1.20
2022-08-19T21:22:22.173Z,1.30
2022-08-19T21:24:48.930Z,1.00
2022-08-19T21:27:15.718Z,1.08
2022-08-19T21:29:43.024Z,0.85
2022-08-19T21:32:13.980Z,1.05
2022-08-19T21:34:43.841Z,0.95
2022-08-19T21:37:24.747Z,0.90
2022-08-19T21:39:53.248Z,1.13
2022-08-19T21:42:20.403Z,1.02
2022-08-19T21:44:47.310Z,1.02
2022-08-19T21:47:14.038Z,1.00
2022-08-19T21:49:40.928Z,0.95
2022-08-19T21:52:08.230Z,1.00
2022-08-19T21:54:38.206Z,0.90
2022-08-19T21:57:10.676Z,1.00
2022-08-19T21:59:43.471Z,0.90
2022-08-19T22:02:20.045Z,0.90
2022-08-19T22:04:48.943Z,1.00
2022-08-19T22:07:15.808Z,0.80
2022-08-19T22:09:47.959Z,0.70
2022-08-19T22:12:27.690Z,0.88
2022-08-19T22:14:55.236Z,1.10
2022-08-19T22:17:22.903Z,1.30
2022-08-19T22:19:50.937Z,1.17
2022-08-19T22:22:26.562Z,1.13
2022-08-19T22:24:55.400Z,0.98
2022-08-19T22:27:22.292Z,0.93
2022-08-19T22:29:52.662Z,0.98
2022-08-19T22:32:28.318Z,1.10
2022-08-19T22:34:57.876Z,0.90
2022-08-19T22:37:25.006Z,0.90
2022-08-19T22:39:51.796Z,1.00
2022-08-19T22:42:20.223Z,1.23
2022-08-19T22:44:46.933Z,0.95
2022-08-19T22:47:13.739Z,0.80
2022-08-19T22:49:40.610Z,1.00
2022-08-19T22:52:19.319Z,1.02
2022-08-19T22:54:58.736Z,1.00
2022-08-19T22:57:25.518Z,0.95
2022-08-19T22:59:53.040Z,0.90
2022-08-19T23:02:26.857Z,1.00
2022-08-19T23:04:54.453Z,0.88
2022-08-19T23:07:23.780Z,1.00
2022-08-19T23:09:50.967Z,1.00
2022-08-19T23:12:30.628Z,1.02
2022-08-19T23:15:05.690Z,1.00
2022-08-19T23:17:32.399Z,0.95
2022-08-19T23:19:59.877Z,1.25
2022-08-19T23:22:27.043Z,1.08
2022-08-19T23:24:56.183Z,1.17
2022-08-19T23:27:43.515Z,1.15
2022-08-19T23:30:26.558Z,1.02
2022-08-19T23:32:58.957Z,0.77
2022-08-19T23:35:26.597Z,1.00
2022-08-19T23:37:53.528Z,1.10
2022-08-19T23:40:21.845Z,1.08
2022-08-19T23:42:51.587Z,1.00
2022-08-19T23:45:23.930Z,1.10
2022-08-19T23:47:53.248Z,1.10
2022-08-19T23:50:21.267Z,0.90
2022-08-19T23:52:53.645Z,1.10
2022-08-19T23:55:23.644Z,1.30
2022-08-19T23:57:50.742Z,1.00
